createdAt,value
2023-03-02T00:01:51.228Z,100331.72
2023-03-02T00:04:37.323Z,100335.75
2023-03-02T00:07:12.123Z,100342.25
2023-03-02T00:09:39.773Z,100348.00
2023-03-02T00:12:07.961Z,100345.41
2023-03-02T00:14:34.849Z,100336.91
2023-03-02T00:17:02.884Z,100338.50
2023-03-02T00:19:29.875Z,100346.75
2023-03-02T00:21:56.687Z,100350.00
2023-03-02T00:24:23.491Z,100349.78
2023-03-02T00:26:50.322Z,100353.84
2023-03-02T00:29:17.059Z,100346.97
2023-03-02T00:31:43.865Z,100351.88
2023-03-02T00:34:10.792Z,100344.13
2023-03-02T00:36:37.924Z,100348.16
2023-03-02T00:39:04.790Z,100350.56
2023-03-02T00:41:31.639Z,100357.09
2023-03-02T00:43:58.360Z,100354.38
2023-03-02T00:46:25.959Z,100352.50
2023-03-02T00:48:53.000Z,100353.13
2023-03-02T00:51:20.062Z,100351.31
2023-03-02T00:53:46.903Z,100347.03
2023-03-02T00:56:13.941Z,100345.28
2023-03-02T00:58:40.719Z,100341.72
2023-03-02T01:01:13.585Z,100345.72
2023-03-02T01:03:40.458Z,100346.41
2023-03-02T01:06:19.348Z,100341.19
2023-03-02T01:08:46.437Z,100336.88
2023-03-02T01:11:16.884Z,100334.31
2023-03-02T01:13:44.865Z,100330.03
2023-03-02T01:16:12.062Z,100326.72
2023-03-02T01:18:39.057Z,100331.66
2023-03-02T01:21:12.314Z,100324.00
2023-03-02T01:23:39.046Z,100327.31
2023-03-02T01:26:06.140Z,100321.47
2023-03-02T01:28:32.893Z,100317.25
2023-03-02T01:31:02.499Z,100315.53
2023-03-02T01:33:29.323Z,100315.53
2023-03-02T01:35:56.142Z,100309.56
2023-03-02T01:38:22.995Z,100308.66
2023-03-02T01:40:49.744Z,100301.09
2023-03-02T01:43:17.062Z,100303.47
2023-03-02T01:45:48.901Z,100298.41
2023-03-02T01:48:23.556Z,100294.13
2023-03-02T01:50:50.962Z,100301.56
2023-03-02T01:53:17.939Z,100299.81
2023-03-02T01:55:46.056Z,100301.41
2023-03-02T01:58:16.626Z,100293.13
2023-03-02T02:00:44.796Z,100285.44
2023-03-02T02:03:21.027Z,100287.09
2023-03-02T02:06:10.421Z,100290.31
2023-03-02T02:08:38.727Z,100287.69
2023-03-02T02:11:06.613Z,100284.28
2023-03-02T02:13:33.475Z,100273.41
2023-03-02T02:16:00.615Z,100277.63
2023-03-02T02:18:27.606Z,100279.22
2023-03-02T02:20:55.890Z,100280.75
2023-03-02T02:23:28.772Z,100287.38
2023-03-02T02:25:55.502Z,100279.72
2023-03-02T02:28:43.124Z,100282.09
2023-03-02T02:31:22.840Z,100271.91
2023-03-02T02:34:04.121Z,100275.13
2023-03-02T02:36:38.541Z,100274.28
2023-03-02T02:39:15.108Z,100268.38
2023-03-02T02:41:45.986Z,100269.03
2023-03-02T02:44:18.581Z,100265.59
2023-03-02T02:46:46.173Z,100268.78
2023-03-02T02:49:37.201Z,100260.28
2023-03-02T02:52:06.076Z,100265.97
2023-03-02T02:54:36.953Z,100259.16
2023-03-02T02:57:05.430Z,100257.38
2023-03-02T02:59:37.989Z,100257.25
2023-03-02T03:02:05.879Z,100259.66
2023-03-02T03:04:33.065Z,100248.72
2023-03-02T03:07:04.808Z,100254.50
2023-03-02T03:09:32.865Z,100252.72
2023-03-02T03:12:16.010Z,100258.50
2023-03-02T03:14:45.077Z,100261.81
2023-03-02T03:17:13.785Z,100254.25
2023-03-02T03:19:44.772Z,100257.56
2023-03-02T03:22:14.705Z,100253.22
2023-03-02T03:24:44.431Z,100256.50
2023-03-02T03:27:15.282Z,100255.53
2023-03-02T03:29:49.844Z,100248.75
2023-03-02T03:32:16.940Z,100256.19
2023-03-02T03:34:44.808Z,100246.91
2023-03-02T03:37:16.040Z,100246.00
2023-03-02T03:39:43.296Z,100239.31
2023-03-02T03:42:10.566Z,100241.09
2023-03-02T03:44:37.983Z,100241.94
2023-03-02T03:47:04.790Z,100242.00
2023-03-02T03:49:31.514Z,100244.47
2023-03-02T03:51:58.605Z,100235.34
2023-03-02T03:54:25.412Z,100236.22
2023-03-02T03:56:52.242Z,100247.03
2023-03-02T03:59:23.741Z,100236.16
2023-03-02T04:01:56.349Z,100251.19
2023-03-02T04:04:34.894Z,100241.09
2023-03-02T04:07:01.862Z,100241.88
2023-03-02T04:09:32.102Z,100233.50
2023-03-02T04:11:58.922Z,100234.38
2023-03-02T04:14:25.973Z,100240.22
2023-03-02T04:16:53.755Z,100234.38
2023-03-02T04:19:21.667Z,100243.59
2023-03-02T04:21:53.295Z,100241.94
2023-03-02T04:24:22.990Z,100241.94
2023-03-02T04:26:51.053Z,100246.19
2023-03-02T04:29:19.062Z,100244.53
2023-03-02T04:31:46.031Z,100243.75
2023-03-02T04:34:12.810Z,100242.91
2023-03-02T04:36:40.737Z,100243.75
2023-03-02T04:39:08.880Z,100234.56
2023-03-02T04:41:36.742Z,100240.34
2023-03-02T04:44:03.800Z,100237.84
2023-03-02T04:46:31.750Z,100249.53
2023-03-02T04:48:58.718Z,100235.28
2023-03-02T04:51:31.247Z,100245.25
2023-03-02T04:54:04.460Z,100240.22
2023-03-02T04:56:31.978Z,100233.50
2023-03-02T04:58:59.838Z,100235.09
2023-03-02T05:01:27.709Z,100226.69
2023-03-02T05:03:54.694Z,100234.16
2023-03-02T05:06:22.142Z,100231.69
2023-03-02T05:08:49.056Z,100239.09
2023-03-02T05:11:22.107Z,100244.94
2023-03-02T05:13:59.846Z,100243.97
2023-03-02T05:16:29.702Z,100243.06
2023-03-02T05:18:56.896Z,100239.84
2023-03-02T05:21:24.137Z,100243.97
2023-03-02T05:23:51.620Z,100241.41
2023-03-02T05:26:18.732Z,100239.72
2023-03-02T05:28:46.598Z,100238.00
2023-03-02T05:31:24.849Z,100238.00
2023-03-02T05:33:51.650Z,100237.94
2023-03-02T05:36:20.240Z,100237.88
2023-03-02T05:38:47.940Z,100236.16
2023-03-02T05:41:14.879Z,100239.44
2023-03-02T05:43:41.649Z,100242.78
2023-03-02T05:46:08.458Z,100252.72
2023-03-02T05:48:35.176Z,100252.72
2023-03-02T05:51:02.204Z,100254.22
2023-03-02T05:53:29.030Z,100255.88
2023-03-02T05:55:56.193Z,100262.53
2023-03-02T05:58:23.017Z,100252.44
2023-03-02T06:00:49.974Z,100254.09
2023-03-02T06:03:17.305Z,100254.03
2023-03-02T06:05:44.609Z,100252.31
2023-03-02T06:08:11.355Z,100256.41
2023-03-02T06:10:38.522Z,100259.69
2023-03-02T06:13:05.336Z,100258.97
2023-03-02T06:15:32.147Z,100260.47
2023-03-02T06:17:59.150Z,100252.19
2023-03-02T06:20:26.009Z,100262.19
2023-03-02T06:22:52.843Z,100260.47
2023-03-02T06:25:24.418Z,100260.47
2023-03-02T06:27:53.600Z,100266.31
2023-03-02T06:30:25.245Z,100264.69
2023-03-02T06:32:52.423Z,100269.00
2023-03-02T06:35:19.787Z,100276.78
2023-03-02T06:37:46.879Z,100264.69
2023-03-02T06:40:14.392Z,100261.84
2023-03-02T06:42:42.997Z,100269.22
2023-03-02T06:45:11.480Z,100273.47
2023-03-02T06:47:38.925Z,100274.59
2023-03-02T06:50:07.112Z,100274.13
2023-03-02T06:52:35.033Z,100281.38
2023-03-02T06:55:02.203Z,100279.66
2023-03-02T06:57:33.734Z,100272.91
2023-03-02T07:00:15.516Z,100268.03
2023-03-02T07:02:43.742Z,100274.88
2023-03-02T07:05:11.302Z,100267.22
2023-03-02T07:07:38.732Z,100275.34
2023-03-02T07:10:08.198Z,100273.31
2023-03-02T07:12:35.283Z,100268.59
2023-03-02T07:15:02.075Z,100270.44
2023-03-02T07:17:28.783Z,100266.22
2023-03-02T07:19:55.576Z,100264.53
2023-03-02T07:22:22.574Z,100275.28
2023-03-02T07:24:49.306Z,100268.13
2023-03-02T07:27:16.047Z,100268.44
2023-03-02T07:29:42.786Z,100266.97
2023-03-02T07:32:12.332Z,100275.66
2023-03-02T07:34:39.487Z,100255.59
2023-03-02T07:37:06.273Z,100253.31
2023-03-02T07:39:33.125Z,100250.16
2023-03-02T07:42:01.372Z,100259.59
2023-03-02T07:44:28.481Z,100245.38
2023-03-02T07:46:55.318Z,100253.03
2023-03-02T07:49:22.176Z,100253.91
2023-03-02T07:51:48.975Z,100251.44
2023-03-02T07:54:15.805Z,100252.41
2023-03-02T07:56:42.644Z,100250.84
2023-03-02T07:59:09.546Z,100244.09
2023-03-02T08:01:36.344Z,100245.78
2023-03-02T08:04:03.251Z,100243.22
2023-03-02T08:06:30.192Z,100245.63
2023-03-02T08:08:57.380Z,100246.34
2023-03-02T08:11:24.108Z,100242.81
2023-03-02T08:13:50.819Z,100249.41
2023-03-02T08:16:17.890Z,100239.03
2023-03-02T08:18:44.803Z,100248.97
2023-03-02T08:21:19.178Z,100246.09
2023-03-02T08:23:46.840Z,100250.81
2023-03-02T08:26:17.299Z,100248.59
2023-03-02T08:28:44.339Z,100246.31
2023-03-02T08:31:12.545Z,100240.72
2023-03-02T08:33:39.554Z,100240.22
2023-03-02T08:36:12.780Z,100234.47
2023-03-02T08:38:39.589Z,100236.50
2023-03-02T08:41:10.846Z,100228.22
2023-03-02T08:43:37.812Z,100224.28
2023-03-02T08:46:05.306Z,100235.69
2023-03-02T08:48:32.569Z,100235.22
2023-03-02T08:51:05.833Z,100221.22
2023-03-02T08:53:38.921Z,100233.78
2023-03-02T08:56:18.967Z,100229.31
2023-03-02T08:58:46.725Z,100225.75
2023-03-02T09:01:22.453Z,100229.97
2023-03-02T09:03:49.642Z,100224.66
2023-03-02T09:06:16.820Z,100227.88
2023-03-02T09:08:44.195Z,100226.38
2023-03-02T09:11:11.281Z,100223.41
2023-03-02T09:13:38.573Z,100219.53
2023-03-02T09:16:08.364Z,100218.94
2023-03-02T09:18:36.131Z,100216.56
2023-03-02T09:21:03.450Z,100219.81
2023-03-02T09:23:31.457Z,100219.69
2023-03-02T09:25:58.844Z,100215.19
2023-03-02T09:28:25.586Z,100211.56
2023-03-02T09:30:56.897Z,100213.81
2023-03-02T09:33:24.146Z,100221.22
2023-03-02T09:35:51.305Z,100220.94
2023-03-02T09:38:19.423Z,100218.88
2023-03-02T09:41:19.194Z,100218.34
2023-03-02T09:44:29.543Z,100224.56
2023-03-02T09:47:34.830Z,100216.47
2023-03-02T09:50:37.775Z,100222.16
2023-03-02T09:53:28.889Z,100221.97
2023-03-02T09:56:01.691Z,100225.22
2023-03-02T09:58:35.899Z,100215.84
2023-03-02T10:01:15.454Z,100227.78
2023-03-02T10:03:58.660Z,100218.13
2023-03-02T10:06:25.499Z,100222.94
2023-03-02T10:08:52.337Z,100220.97
2023-03-02T10:11:50.383Z,100219.97
2023-03-02T10:14:39.121Z,100216.09
2023-03-02T10:17:33.261Z,100215.91
2023-03-02T10:20:17.103Z,100214.88
2023-03-02T10:22:52.865Z,100212.50
2023-03-02T10:25:33.990Z,100204.78
2023-03-02T10:28:19.112Z,100209.69
2023-03-02T10:30:53.415Z,100216.69
2023-03-02T10:33:22.080Z,100206.09
2023-03-02T10:35:53.055Z,100207.50
2023-03-02T10:38:24.508Z,100205.50
2023-03-02T10:41:06.464Z,100210.28
2023-03-02T10:43:44.411Z,100198.66
2023-03-02T10:46:13.989Z,100202.16
2023-03-02T10:49:01.086Z,100195.41
2023-03-02T10:51:35.437Z,100198.94
2023-03-02T10:54:07.425Z,100196.09
2023-03-02T10:56:34.864Z,100191.47
2023-03-02T10:59:12.934Z,100190.34
2023-03-02T11:01:39.673Z,100186.66
2023-03-02T11:04:15.277Z,100185.69
2023-03-02T11:06:42.097Z,100186.78
2023-03-02T11:09:14.432Z,100192.03
2023-03-02T11:11:56.943Z,100193.81
2023-03-02T11:14:23.864Z,100186.03
2023-03-02T11:16:53.085Z,100180.84
2023-03-02T11:19:34.629Z,100191.16
2023-03-02T11:22:37.127Z,100186.31
2023-03-02T11:25:12.821Z,100179.06
2023-03-02T11:27:44.761Z,100180.25
2023-03-02T11:30:22.693Z,100189.09
2023-03-02T11:33:04.018Z,100191.09
2023-03-02T11:35:38.968Z,100188.88
2023-03-02T11:38:38.317Z,100184.97
2023-03-02T11:41:29.658Z,100187.75
2023-03-02T11:44:01.849Z,100177.81
2023-03-02T11:46:32.564Z,100182.44
2023-03-02T11:49:06.185Z,100173.50
2023-03-02T11:51:50.046Z,100179.94
2023-03-02T11:54:52.753Z,100177.91
2023-03-02T11:57:33.842Z,100182.44
2023-03-02T12:00:01.961Z,100176.81
2023-03-02T12:02:28.834Z,100177.94
2023-03-02T12:05:23.196Z,100172.34
2023-03-02T12:08:20.590Z,100181.28
2023-03-02T12:11:03.623Z,100174.75
2023-03-02T12:13:40.385Z,100171.50
2023-03-02T12:16:32.739Z,100178.50
2023-03-02T12:19:12.057Z,100171.84
2023-03-02T12:22:06.916Z,100171.16
2023-03-02T12:24:37.905Z,100178.13
2023-03-02T12:27:13.428Z,100173.19
2023-03-02T12:29:44.868Z,100166.56
2023-03-02T12:32:24.553Z,100169.28
2023-03-02T12:35:14.426Z,100163.50
2023-03-02T12:37:52.345Z,100156.81
2023-03-02T12:40:55.781Z,100164.56
2023-03-02T12:43:37.772Z,100166.41
2023-03-02T12:46:29.101Z,100156.28
2023-03-02T12:49:45.613Z,100150.38
2023-03-02T12:52:35.608Z,100151.28
2023-03-02T12:55:20.728Z,100153.56
2023-03-02T12:57:58.273Z,100154.50
2023-03-02T13:00:30.133Z,100151.22
2023-03-02T13:03:01.955Z,100138.53
2023-03-02T13:05:33.146Z,100134.31
2023-03-02T13:08:01.802Z,100130.97
2023-03-02T13:10:41.982Z,100133.56
2023-03-02T13:13:43.825Z,100138.72
2023-03-02T13:16:33.436Z,100130.25
2023-03-02T13:19:15.114Z,100120.97
2023-03-02T13:21:42.119Z,100130.31
2023-03-02T13:24:50.502Z,100123.59
2023-03-02T13:27:23.404Z,100117.63
2023-03-02T13:29:52.712Z,100111.69
2023-03-02T13:32:26.775Z,100109.16
2023-03-02T13:34:58.571Z,100109.13
2023-03-02T13:37:38.783Z,100115.06
2023-03-02T13:40:27.621Z,100109.16
2023-03-02T13:42:54.994Z,100121.03
2023-03-02T13:45:33.160Z,100106.66
2023-03-02T13:48:17.114Z,100106.69
2023-03-02T13:50:58.865Z,100102.50
2023-03-02T13:53:30.023Z,100101.66
2023-03-02T13:56:00.169Z,100103.38
2023-03-02T13:58:29.662Z,100096.63
2023-03-02T14:00:56.796Z,100097.50
2023-03-02T14:03:30.834Z,100091.59
2023-03-02T14:05:59.469Z,100097.50
2023-03-02T14:08:26.413Z,100091.59
2023-03-02T14:10:59.864Z,100097.50
2023-03-02T14:13:37.586Z,100086.53
2023-03-02T14:16:04.814Z,100086.56
2023-03-02T14:18:47.086Z,100078.94
2023-03-02T14:21:17.754Z,100078.09
2023-03-02T14:23:46.029Z,100083.19
2023-03-02T14:26:34.693Z,100082.34
2023-03-02T14:29:28.865Z,100083.19
2023-03-02T14:31:57.646Z,100084.06
2023-03-02T14:34:24.442Z,100086.63
2023-03-02T14:36:56.160Z,100076.44
2023-03-02T14:39:31.895Z,100080.69
2023-03-02T14:41:58.988Z,100080.69
2023-03-02T14:44:26.165Z,100075.66
2023-03-02T14:46:53.116Z,100064.63
2023-03-02T14:49:21.103Z,100063.78
2023-03-02T14:52:06.394Z,100068.03
2023-03-02T14:54:43.936Z,100063.78
2023-03-02T14:57:25.194Z,100061.25
2023-03-02T14:59:53.815Z,100063.84
2023-03-02T15:02:25.978Z,100055.34
2023-03-02T15:04:56.842Z,100058.75
2023-03-02T15:07:27.207Z,100048.59
2023-03-02T15:09:56.473Z,100046.94
2023-03-02T15:12:23.961Z,100051.16
2023-03-02T15:14:51.303Z,100050.31
2023-03-02T15:17:18.184Z,100046.09
2023-03-02T15:19:44.884Z,100049.47
2023-03-02T15:22:13.091Z,100044.38
2023-03-02T15:24:39.914Z,100049.47
2023-03-02T15:27:06.684Z,100055.38
2023-03-02T15:29:34.040Z,100045.22
2023-03-02T15:32:00.962Z,100052.84
2023-03-02T15:34:27.820Z,100052.00
2023-03-02T15:36:54.565Z,100062.16
2023-03-02T15:39:21.274Z,100060.47
2023-03-02T15:41:48.059Z,100040.16
2023-03-02T15:44:22.933Z,100050.31
2023-03-02T15:47:00.450Z,100051.16
2023-03-02T15:49:29.270Z,100052.00
2023-03-02T15:51:57.793Z,100046.91
2023-03-02T15:54:26.379Z,100051.16
2023-03-02T15:56:53.528Z,100058.78
2023-03-02T15:59:23.850Z,100061.31
2023-03-02T16:01:50.998Z,100061.25
2023-03-02T16:04:18.674Z,100062.97
2023-03-02T16:07:01.663Z,100064.63
2023-03-02T16:09:28.955Z,100061.25
2023-03-02T16:11:56.106Z,100071.41
2023-03-02T16:14:23.071Z,100069.69
2023-03-02T16:16:50.425Z,100069.69
2023-03-02T16:19:19.404Z,100070.53
2023-03-02T16:21:51.424Z,100076.41
2023-03-02T16:24:18.271Z,100075.56
2023-03-02T16:26:45.456Z,100074.69
2023-03-02T16:29:14.985Z,100067.94
2023-03-02T16:31:42.311Z,100071.31
2023-03-02T16:34:10.098Z,100069.63
2023-03-02T16:36:40.414Z,100075.47
2023-03-02T16:39:09.299Z,100076.31
2023-03-02T16:41:38.525Z,100080.53
2023-03-02T16:44:06.077Z,100080.53
2023-03-02T16:46:36.881Z,100088.13
2023-03-02T16:49:05.301Z,100089.78
2023-03-02T16:51:32.610Z,100093.16
2023-03-02T16:53:59.391Z,100098.22
2023-03-02T16:56:26.334Z,100096.53
2023-03-02T16:58:53.258Z,100098.22
2023-03-02T17:01:21.774Z,100093.97
2023-03-02T17:03:50.869Z,100102.41
2023-03-02T17:06:21.056Z,100099.00
2023-03-02T17:08:47.952Z,100098.13
2023-03-02T17:11:15.077Z,100103.22
2023-03-02T17:13:42.174Z,100104.91
2023-03-02T17:16:09.201Z,100106.56
2023-03-02T17:18:36.170Z,100110.75
2023-03-02T17:21:05.466Z,100111.56
2023-03-02T17:23:33.014Z,100111.53
2023-03-02T17:25:59.871Z,100113.19
2023-03-02T17:28:26.586Z,100113.13
2023-03-02T17:30:53.343Z,100126.56
2023-03-02T17:33:20.216Z,100124.00
2023-03-02T17:35:47.175Z,100128.16
2023-03-02T17:38:15.713Z,100127.22
2023-03-02T17:40:43.372Z,100128.81
2023-03-02T17:43:11.427Z,100132.09
2023-03-02T17:45:38.720Z,100129.50
2023-03-02T17:48:06.057Z,100142.88
2023-03-02T17:50:32.843Z,100142.78
2023-03-02T17:52:59.801Z,100143.53
2023-03-02T17:55:26.834Z,100149.31
2023-03-02T17:57:53.800Z,100148.38
2023-03-02T18:00:22.674Z,100152.50
2023-03-02T18:02:50.621Z,100154.94
2023-03-02T18:05:18.050Z,100159.03
2023-03-02T18:07:45.116Z,100161.50
2023-03-02T18:10:13.144Z,100160.56
2023-03-02T18:12:40.079Z,100163.00
2023-03-02T18:15:07.948Z,100167.09
2023-03-02T18:17:34.690Z,100173.75
2023-03-02T18:20:01.512Z,100171.13
2023-03-02T18:22:28.339Z,100178.56
2023-03-02T18:24:55.119Z,100181.88
2023-03-02T18:27:21.995Z,100185.13
2023-03-02T18:29:48.845Z,100191.81
2023-03-02T18:32:15.708Z,100187.50
2023-03-02T18:34:42.548Z,100194.22
2023-03-02T18:37:09.670Z,100201.69
2023-03-02T18:39:37.817Z,100192.38
2023-03-02T18:42:06.539Z,100198.19
2023-03-02T18:44:33.984Z,100199.84
2023-03-02T18:47:01.953Z,100207.41
2023-03-02T18:49:29.507Z,100209.91
2023-03-02T18:51:56.724Z,100204.03
2023-03-02T18:54:24.347Z,100211.59
2023-03-02T18:56:51.892Z,100209.91
2023-03-02T18:59:19.098Z,100212.41
2023-03-02T19:01:46.416Z,100205.69
2023-03-02T19:04:14.528Z,100222.53
2023-03-02T19:06:46.094Z,100215.75
2023-03-02T19:09:15.827Z,100219.97
2023-03-02T19:11:45.429Z,100216.56
2023-03-02T19:14:12.299Z,100216.53
2023-03-02T19:16:40.159Z,100216.50
2023-03-02T19:19:09.065Z,100215.63
2023-03-02T19:21:35.957Z,100222.34
2023-03-02T19:24:02.910Z,100233.25
2023-03-02T19:26:30.070Z,100227.31
2023-03-02T19:28:57.096Z,100234.03
2023-03-02T19:31:28.680Z,100238.16
2023-03-02T19:33:55.858Z,100243.19
2023-03-02T19:36:23.373Z,100244.78
2023-03-02T19:38:50.255Z,100254.06
2023-03-02T19:41:19.942Z,100248.91
2023-03-02T19:43:50.200Z,100256.44
2023-03-02T19:46:18.231Z,100264.81
2023-03-02T19:48:45.110Z,100259.75
2023-03-02T19:51:13.784Z,100260.53
2023-03-02T19:53:42.284Z,100263.03
2023-03-02T19:56:13.026Z,100268.88
2023-03-02T19:58:49.581Z,100258.66
2023-03-02T20:01:24.923Z,100267.88
2023-03-02T20:03:55.963Z,100261.00
2023-03-02T20:06:31.579Z,100271.91
2023-03-02T20:09:01.576Z,100270.94
2023-03-02T20:11:30.727Z,100266.66
2023-03-02T20:14:02.506Z,100273.38
2023-03-02T20:16:32.419Z,100273.28
2023-03-02T20:19:02.007Z,100279.09
2023-03-02T20:21:36.461Z,100268.84
2023-03-02T20:24:04.880Z,100267.91
2023-03-02T20:26:34.724Z,100266.16
2023-03-02T20:29:04.619Z,100267.72
2023-03-02T20:31:33.594Z,100262.59
2023-03-02T20:34:05.893Z,100265.91
2023-03-02T20:36:36.711Z,100253.94
2023-03-02T20:39:11.330Z,100259.72
2023-03-02T20:41:38.427Z,100259.50
2023-03-02T20:44:06.664Z,100259.28
2023-03-02T20:46:44.783Z,100270.00
2023-03-02T20:49:15.976Z,100279.09
2023-03-02T20:51:49.287Z,100274.66
2023-03-02T20:54:16.990Z,100272.88
2023-03-02T20:56:45.885Z,100273.56
2023-03-02T20:59:16.320Z,100271.69
2023-03-02T21:01:43.689Z,100269.00
2023-03-02T21:04:10.914Z,100276.47
2023-03-02T21:06:38.546Z,100279.69
2023-03-02T21:09:09.030Z,100273.59
2023-03-02T21:11:37.114Z,100284.38
2023-03-02T21:14:05.069Z,100282.53
2023-03-02T21:16:37.084Z,100290.00
2023-03-02T21:19:09.506Z,100287.25
2023-03-02T21:21:42.451Z,100288.03
2023-03-02T21:24:18.311Z,100286.25
2023-03-02T21:26:48.256Z,100283.69
2023-03-02T21:29:19.754Z,100292.06
2023-03-02T21:31:47.855Z,100290.25
2023-03-02T21:34:18.926Z,100283.59
2023-03-02T21:36:46.924Z,100275.06
2023-03-02T21:39:14.479Z,100276.59
2023-03-02T21:41:41.707Z,100279.88
2023-03-02T21:44:08.983Z,100283.16
2023-03-02T21:46:39.455Z,100285.66
2023-03-02T21:49:06.768Z,100284.59
2023-03-02T21:51:34.749Z,100287.09
2023-03-02T21:54:01.615Z,100291.22
2023-03-02T21:56:28.738Z,100290.41
2023-03-02T21:58:57.070Z,100293.78
2023-03-02T22:01:26.338Z,100287.03
2023-03-02T22:03:53.637Z,100285.31
2023-03-02T22:06:25.370Z,100277.69
2023-03-02T22:08:52.455Z,100282.78
2023-03-02T22:11:31.862Z,100284.41
2023-03-02T22:14:03.296Z,100270.03
2023-03-02T22:16:40.220Z,100283.34
2023-03-02T22:19:28.248Z,100295.03
2023-03-02T22:22:01.123Z,100294.97
2023-03-02T22:24:32.080Z,100284.72
2023-03-02T22:27:18.688Z,100282.22
2023-03-02T22:29:47.756Z,100276.25
2023-03-02T22:32:38.220Z,100272.78
2023-03-02T22:35:25.294Z,100266.69
2023-03-02T22:38:11.645Z,100273.28
2023-03-02T22:40:38.484Z,100270.66
2023-03-02T22:43:26.690Z,100265.53
2023-03-02T22:45:58.161Z,100273.78
2023-03-02T22:48:28.517Z,100272.91
2023-03-02T22:50:55.241Z,100279.47
2023-03-02T22:53:33.062Z,100281.16
2023-03-02T22:56:21.180Z,100278.50
2023-03-02T22:58:52.022Z,100279.16
2023-03-02T23:01:29.459Z,100278.25
2023-03-02T23:04:08.191Z,100278.16
2023-03-02T23:06:46.445Z,100276.38
2023-03-02T23:09:17.788Z,100280.44
2023-03-02T23:11:45.414Z,100282.00
2023-03-02T23:14:38.999Z,100281.94
2023-03-02T23:17:14.473Z,100282.63
2023-03-02T23:19:41.354Z,100281.72
2023-03-02T23:22:09.469Z,100290.00
2023-03-02T23:24:36.779Z,100292.47
2023-03-02T23:27:04.010Z,100296.47
2023-03-02T23:29:31.257Z,100290.53
2023-03-02T23:31:58.123Z,100283.72
2023-03-02T23:34:25.303Z,100286.19
2023-03-02T23:36:52.122Z,100286.16
2023-03-02T23:39:18.948Z,100291.88
2023-03-02T23:41:45.792Z,100290.09
2023-03-02T23:44:12.578Z,100288.28
2023-03-02T23:46:39.416Z,100290.66
2023-03-02T23:49:06.271Z,100294.78
2023-03-02T23:51:33.169Z,100295.53
2023-03-02T23:54:00.033Z,100297.09
2023-03-02T23:56:26.854Z,100292.00
2023-03-02T23:58:54.775Z,100300.25
